sensor_id;sensor_type;location;lat;lon;timestamp;pressure;altitude;pressure_sealevel;temperature;humidity
34566;BME280;20803;42.676;26.348;2022-08-27T00:00:24;98053.84;;;22.37;69.92
34566;BME280;20803;42.676;26.348;2022-08-27T00:02:50;98057.94;;;22.36;69.65
34566;BME280;20803;42.676;26.348;2022-08-27T00:05:17;98060.25;;;22.32;69.56
34566;BME280;20803;42.676;26.348;2022-08-27T00:07:44;98066.47;;;22.42;68.52
34566;BME280;20803;42.676;26.348;2022-08-27T00:10:14;98062.38;;;22.48;68.89
34566;BME280;20803;42.676;26.348;2022-08-27T00:12:40;98058.50;;;22.51;68.06
34566;BME280;20803;42.676;26.348;2022-08-27T00:15:06;98061.59;;;22.53;67.95
34566;BME280;20803;42.676;26.348;2022-08-27T00:17:32;98058.28;;;22.55;67.61
34566;BME280;20803;42.676;26.348;2022-08-27T00:19:59;98063.44;;;22.56;68.04
34566;BME280;20803;42.676;26.348;2022-08-27T00:22:24;98060.03;;;22.47;69.08
34566;BME280;20803;42.676;26.348;2022-08-27T00:24:50;98063.59;;;22.31;68.92
34566;BME280;20803;42.676;26.348;2022-08-27T00:27:16;98063.72;;;22.05;71.45
34566;BME280;20803;42.676;26.348;2022-08-27T00:29:42;98070.25;;;21.85;73.57
34566;BME280;20803;42.676;26.348;2022-08-27T00:32:07;98072.00;;;21.77;73.57
34566;BME280;20803;42.676;26.348;2022-08-27T00:34:33;98079.06;;;21.61;73.35
34566;BME280;20803;42.676;26.348;2022-08-27T00:36:58;98079.59;;;21.65;74.25
34566;BME280;20803;42.676;26.348;2022-08-27T00:39:23;98079.97;;;21.78;74.01
34566;BME280;20803;42.676;26.348;2022-08-27T00:41:49;98083.06;;;21.80;73.54
34566;BME280;20803;42.676;26.348;2022-08-27T00:44:15;98073.06;;;21.85;72.11
34566;BME280;20803;42.676;26.348;2022-08-27T00:46:50;98079.03;;;21.93;73.56
34566;BME280;20803;42.676;26.348;2022-08-27T00:49:53;98074.22;;;21.99;73.71
34566;BME280;20803;42.676;26.348;2022-08-27T00:52:47;98076.00;;;21.96;73.91
34566;BME280;20803;42.676;26.348;2022-08-27T00:55:19;98074.94;;;21.94;73.90
34566;BME280;20803;42.676;26.348;2022-08-27T00:58:03;98070.81;;;21.95;73.57
34566;BME280;20803;42.676;26.348;2022-08-27T01:00:31;98073.47;;;22.04;72.72
34566;BME280;20803;42.676;26.348;2022-08-27T01:02:57;98071.72;;;22.12;72.39
34566;BME280;20803;42.676;26.348;2022-08-27T01:05:23;98063.72;;;22.05;72.31
34566;BME280;20803;42.676;26.348;2022-08-27T01:07:54;98066.22;;;21.97;72.88
34566;BME280;20803;42.676;26.348;2022-08-27T01:10:23;98062.84;;;21.93;72.75
34566;BME280;20803;42.676;26.348;2022-08-27T01:12:51;98058.94;;;21.91;73.01
34566;BME280;20803;42.676;26.348;2022-08-27T01:15:19;98063.63;;;21.94;72.43
34566;BME280;20803;42.676;26.348;2022-08-27T01:17:46;98060.34;;;22.01;72.17
34566;BME280;20803;42.676;26.348;2022-08-27T01:20:18;98057.00;;;22.02;72.32
34566;BME280;20803;42.676;26.348;2022-08-27T01:22:59;98059.59;;;22.06;71.18
34566;BME280;20803;42.676;26.348;2022-08-27T01:25:27;98060.13;;;22.10;71.50
34566;BME280;20803;42.676;26.348;2022-08-27T01:27:56;98066.28;;;22.08;70.82
34566;BME280;20803;42.676;26.348;2022-08-27T01:30:25;98054.50;;;22.15;70.58
34566;BME280;20803;42.676;26.348;2022-08-27T01:32:51;98050.09;;;22.14;70.64
34566;BME280;20803;42.676;26.348;2022-08-27T01:35:17;98051.47;;;22.24;70.39
34566;BME280;20803;42.676;26.348;2022-08-27T01:37:45;98050.19;;;22.31;70.89
34566;BME280;20803;42.676;26.348;2022-08-27T01:40:12;98051.19;;;22.22;70.61
34566;BME280;20803;42.676;26.348;2022-08-27T01:42:41;98054.50;;;22.15;70.89
34566;BME280;20803;42.676;26.348;2022-08-27T01:45:13;98054.94;;;22.03;72.97
34566;BME280;20803;42.676;26.348;2022-08-27T01:47:40;98052.56;;;21.96;72.38
34566;BME280;20803;42.676;26.348;2022-08-27T01:50:22;98052.38;;;22.05;71.74
34566;BME280;20803;42.676;26.348;2022-08-27T01:52:49;98054.94;;;22.03;72.21
34566;BME280;20803;42.676;26.348;2022-08-27T01:55:17;98061.88;;;22.02;72.61
34566;BME280;20803;42.676;26.348;2022-08-27T01:57:44;98068.63;;;22.10;71.72
34566;BME280;20803;42.676;26.348;2022-08-27T02:00:16;98056.03;;;22.16;71.09
34566;BME280;20803;42.676;26.348;2022-08-27T02:02:42;98059.94;;;22.19;70.87
34566;BME280;20803;42.676;26.348;2022-08-27T02:05:09;98049.34;;;22.14;71.36
34566;BME280;20803;42.676;26.348;2022-08-27T02:07:36;98053.34;;;21.96;72.20
34566;BME280;20803;42.676;26.348;2022-08-27T02:10:03;98042.69;;;21.80;73.46
34566;BME280;20803;42.676;26.348;2022-08-27T02:12:29;98051.19;;;21.80;73.49
34566;BME280;20803;42.676;26.348;2022-08-27T02:14:54;98048.81;;;21.73;73.32
34566;BME280;20803;42.676;26.348;2022-08-27T02:17:20;98047.81;;;21.76;73.46
34566;BME280;20803;42.676;26.348;2022-08-27T02:19:45;98051.13;;;21.69;72.93
34566;BME280;20803;42.676;26.348;2022-08-27T02:22:11;98052.88;;;21.66;72.92
34566;BME280;20803;42.676;26.348;2022-08-27T02:24:37;98049.59;;;21.73;72.21
34566;BME280;20803;42.676;26.348;2022-08-27T02:27:02;98049.28;;;21.66;72.00
34566;BME280;20803;42.676;26.348;2022-08-27T02:29:28;98058.00;;;21.62;72.36
34566;BME280;20803;42.676;26.348;2022-08-27T02:31:53;98059.56;;;21.63;72.23
34566;BME280;20803;42.676;26.348;2022-08-27T02:34:19;98051.03;;;21.58;71.96
34566;BME280;20803;42.676;26.348;2022-08-27T02:36:44;98058.00;;;21.62;71.33
34566;BME280;20803;42.676;26.348;2022-08-27T02:39:10;98059.88;;;21.71;71.48
34566;BME280;20803;42.676;26.348;2022-08-27T02:41:36;98062.75;;;21.76;70.74
34566;BME280;20803;42.676;26.348;2022-08-27T02:44:02;98057.63;;;21.80;70.50
34566;BME280;20803;42.676;26.348;2022-08-27T02:46:28;98058.44;;;21.86;69.75
34566;BME280;20803;42.676;26.348;2022-08-27T02:48:54;98056.66;;;21.89;69.93
34566;BME280;20803;42.676;26.348;2022-08-27T02:51:20;98066.13;;;21.86;71.23
34566;BME280;20803;42.676;26.348;2022-08-27T02:53:45;98061.63;;;21.63;71.58
34566;BME280;20803;42.676;26.348;2022-08-27T02:56:11;98058.97;;;21.54;72.54
34566;BME280;20803;42.676;26.348;2022-08-27T02:58:36;98067.19;;;21.52;72.89
34566;BME280;20803;42.676;26.348;2022-08-27T03:01:02;98066.16;;;21.55;72.75
34566;BME280;20803;42.676;26.348;2022-08-27T03:03:29;98066.44;;;21.57;72.61
34566;BME280;20803;42.676;26.348;2022-08-27T03:05:56;98066.66;;;21.53;73.18
34566;BME280;20803;42.676;26.348;2022-08-27T03:08:26;98064.84;;;21.50;73.35
34566;BME280;20803;42.676;26.348;2022-08-27T03:10:53;98071.56;;;21.53;72.69
34566;BME280;20803;42.676;26.348;2022-08-27T03:13:19;98068.22;;;21.54;72.59
34566;BME280;20803;42.676;26.348;2022-08-27T03:15:45;98066.50;;;21.62;72.13
34566;BME280;20803;42.676;26.348;2022-08-27T03:18:10;98066.28;;;21.71;72.31
34566;BME280;20803;42.676;26.348;2022-08-27T03:23:13;98072.09;;;21.57;72.61
34566;BME280;20803;42.676;26.348;2022-08-27T03:25:43;98070.03;;;21.52;72.56
34566;BME280;20803;42.676;26.348;2022-08-27T03:28:09;98076.69;;;21.54;72.39
34566;BME280;20803;42.676;26.348;2022-08-27T03:30:35;98079.78;;;21.51;72.76
34566;BME280;20803;42.676;26.348;2022-08-27T03:33:01;98078.50;;;21.52;72.71
34566;BME280;20803;42.676;26.348;2022-08-27T03:35:26;98077.94;;;21.48;72.73
34566;BME280;20803;42.676;26.348;2022-08-27T03:37:52;98075.88;;;21.48;72.97
34566;BME280;20803;42.676;26.348;2022-08-27T03:40:17;98082.88;;;21.53;72.52
34566;BME280;20803;42.676;26.348;2022-08-27T03:42:43;98087.06;;;21.63;71.52
34566;BME280;20803;42.676;26.348;2022-08-27T03:45:10;98085.09;;;21.74;71.11
34566;BME280;20803;42.676;26.348;2022-08-27T03:47:36;98088.22;;;21.82;70.97
34566;BME280;20803;42.676;26.348;2022-08-27T03:50:03;98088.38;;;21.99;69.89
34566;BME280;20803;42.676;26.348;2022-08-27T03:52:32;98085.88;;;22.12;69.60
34566;BME280;20803;42.676;26.348;2022-08-27T03:54:58;98092.66;;;22.25;67.20
34566;BME280;20803;42.676;26.348;2022-08-27T03:57:24;98091.63;;;22.34;65.91
34566;BME280;20803;42.676;26.348;2022-08-27T03:59:50;98095.22;;;22.29;67.01
34566;BME280;20803;42.676;26.348;2022-08-27T04:02:15;98096.81;;;22.41;66.74
34566;BME280;20803;42.676;26.348;2022-08-27T04:04:41;98086.56;;;22.49;66.44
34566;BME280;20803;42.676;26.348;2022-08-27T04:07:06;98089.13;;;22.47;66.87
34566;BME280;20803;42.676;26.348;2022-08-27T04:09:32;98089.94;;;22.53;66.64
34566;BME280;20803;42.676;26.348;2022-08-27T04:11:58;98092.78;;;22.64;65.50
34566;BME280;20803;42.676;26.348;2022-08-27T04:14:23;98087.00;;;22.96;63.74
34566;BME280;20803;42.676;26.348;2022-08-27T04:16:49;98089.13;;;23.45;61.92
34566;BME280;20803;42.676;26.348;2022-08-27T04:19:14;98082.16;;;23.85;59.30
34566;BME280;20803;42.676;26.348;2022-08-27T04:21:40;98096.81;;;24.12;57.98
34566;BME280;20803;42.676;26.348;2022-08-27T04:24:05;98084.97;;;24.19;56.61
34566;BME280;20803;42.676;26.348;2022-08-27T04:26:31;98096.25;;;24.36;55.59
34566;BME280;20803;42.676;26.348;2022-08-27T04:28:57;98101.28;;;24.71;54.45
34566;BME280;20803;42.676;26.348;2022-08-27T04:31:22;98093.75;;;25.25;52.35
34566;BME280;20803;42.676;26.348;2022-08-27T04:33:48;98086.47;;;25.35;51.23
34566;BME280;20803;42.676;26.348;2022-08-27T04:36:14;98090.97;;;25.55;50.56
34566;BME280;20803;42.676;26.348;2022-08-27T04:38:41;98095.03;;;25.65;49.91
34566;BME280;20803;42.676;26.348;2022-08-27T04:41:08;98086.97;;;26.23;48.82
34566;BME280;20803;42.676;26.348;2022-08-27T04:43:52;98087.59;;;26.59;47.84
34566;BME280;20803;42.676;26.348;2022-08-27T04:46:20;98084.84;;;26.73;47.25
34566;BME280;20803;42.676;26.348;2022-08-27T04:48:46;98080.47;;;27.09;45.78
34566;BME280;20803;42.676;26.348;2022-08-27T04:51:11;98088.22;;;26.95;45.88
34566;BME280;20803;42.676;26.348;2022-08-27T04:53:37;98091.88;;;27.09;45.60
34566;BME280;20803;42.676;26.348;2022-08-27T04:56:02;98093.47;;;27.42;45.02
34566;BME280;20803;42.676;26.348;2022-08-27T04:58:28;98100.22;;;28.35;43.18
34566;BME280;20803;42.676;26.348;2022-08-27T05:00:56;98102.78;;;29.12;42.13
34566;BME280;20803;42.676;26.348;2022-08-27T05:03:24;98106.38;;;29.25;41.91
34566;BME280;20803;42.676;26.348;2022-08-27T05:05:51;98109.31;;;29.67;40.46
34566;BME280;20803;42.676;26.348;2022-08-27T05:08:17;98105.56;;;29.93;40.16
34566;BME280;20803;42.676;26.348;2022-08-27T05:10:45;98101.56;;;29.75;40.50
34566;BME280;20803;42.676;26.348;2022-08-27T05:13:11;98098.56;;;29.80;40.56
34566;BME280;20803;42.676;26.348;2022-08-27T05:15:37;98109.13;;;30.06;39.94
34566;BME280;20803;42.676;26.348;2022-08-27T05:18:04;98110.84;;;30.58;38.87
34566;BME280;20803;42.676;26.348;2022-08-27T05:20:31;98099.56;;;30.60;40.53
34566;BME280;20803;42.676;26.348;2022-08-27T05:22:57;98105.28;;;30.32;39.49
34566;BME280;20803;42.676;26.348;2022-08-27T05:25:24;98102.19;;;30.51;39.71
34566;BME280;20803;42.676;26.348;2022-08-27T05:27:50;98101.00;;;31.18;38.88
34566;BME280;20803;42.676;26.348;2022-08-27T05:30:16;98106.81;;;31.49;37.56
34566;BME280;20803;42.676;26.348;2022-08-27T05:32:42;98110.41;;;31.26;37.13
34566;BME280;20803;42.676;26.348;2022-08-27T05:35:08;98102.81;;;31.00;38.75
34566;BME280;20803;42.676;26.348;2022-08-27T05:37:34;98108.84;;;31.18;38.31
34566;BME280;20803;42.676;26.348;2022-08-27T05:40:01;98110.09;;;31.01;38.99
34566;BME280;20803;42.676;26.348;2022-08-27T05:42:31;98107.41;;;31.55;39.28
34566;BME280;20803;42.676;26.348;2022-08-27T05:44:57;98099.03;;;32.02;38.09
34566;BME280;20803;42.676;26.348;2022-08-27T05:47:23;98115.16;;;32.36;36.65
34566;BME280;20803;42.676;26.348;2022-08-27T05:49:52;98116.28;;;32.33;36.54
34566;BME280;20803;42.676;26.348;2022-08-27T05:52:18;98123.59;;;32.34;36.60
34566;BME280;20803;42.676;26.348;2022-08-27T05:54:44;98113.63;;;32.27;36.24
34566;BME280;20803;42.676;26.348;2022-08-27T05:57:10;98127.22;;;31.89;36.87
34566;BME280;20803;42.676;26.348;2022-08-27T05:59:36;98118.59;;;32.11;36.54
34566;BME280;20803;42.676;26.348;2022-08-27T06:02:20;98129.34;;;32.49;36.81
34566;BME280;20803;42.676;26.348;2022-08-27T06:04:46;98131.22;;;32.61;35.46
34566;BME280;20803;42.676;26.348;2022-08-27T06:07:11;98130.66;;;32.48;35.84
34566;BME280;20803;42.676;26.348;2022-08-27T06:09:38;98134.13;;;32.08;37.07
34566;BME280;20803;42.676;26.348;2022-08-27T06:12:04;98133.78;;;32.19;36.52
34566;BME280;20803;42.676;26.348;2022-08-27T06:14:30;98139.88;;;32.69;36.25
34566;BME280;20803;42.676;26.348;2022-08-27T06:16:59;98146.22;;;33.63;34.66
34566;BME280;20803;42.676;26.348;2022-08-27T06:19:24;98146.81;;;34.43;33.03
34566;BME280;20803;42.676;26.348;2022-08-27T06:21:50;98154.84;;;34.70;32.68
34566;BME280;20803;42.676;26.348;2022-08-27T06:24:16;98141.63;;;34.84;32.37
34566;BME280;20803;42.676;26.348;2022-08-27T06:26:43;98146.97;;;35.05;31.44
34566;BME280;20803;42.676;26.348;2022-08-27T06:29:09;98144.69;;;35.20;30.94
34566;BME280;20803;42.676;26.348;2022-08-27T06:31:36;98138.22;;;34.95;31.40
34566;BME280;20803;42.676;26.348;2022-08-27T06:34:05;98156.03;;;34.67;30.25
34566;BME280;20803;42.676;26.348;2022-08-27T06:36:31;98152.03;;;34.62;30.96
34566;BME280;20803;42.676;26.348;2022-08-27T06:38:57;98141.78;;;34.27;31.48
34566;BME280;20803;42.676;26.348;2022-08-27T06:41:26;98144.50;;;34.25;30.72
34566;BME280;20803;42.676;26.348;2022-08-27T06:43:52;98152.03;;;34.62;30.48
34566;BME280;20803;42.676;26.348;2022-08-27T06:46:21;98151.81;;;35.36;30.06
34566;BME280;20803;42.676;26.348;2022-08-27T06:48:47;98147.03;;;35.14;30.16
34566;BME280;20803;42.676;26.348;2022-08-27T06:51:17;98147.50;;;36.08;28.42
34566;BME280;20803;42.676;26.348;2022-08-27T06:53:44;98149.03;;;36.09;28.45
34566;BME280;20803;42.676;26.348;2022-08-27T06:56:12;98153.09;;;34.91;29.62
34566;BME280;20803;42.676;26.348;2022-08-27T06:58:39;98153.00;;;35.33;29.84
34566;BME280;20803;42.676;26.348;2022-08-27T07:01:17;98155.31;;;35.00;30.93
34566;BME280;20803;42.676;26.348;2022-08-27T07:03:43;98150.97;;;34.08;31.94
34566;BME280;20803;42.676;26.348;2022-08-27T07:06:10;98156.16;;;34.09;31.67
34566;BME280;20803;42.676;26.348;2022-08-27T07:08:36;98166.16;;;33.76;32.01
34566;BME280;20803;42.676;26.348;2022-08-27T07:11:01;98163.47;;;32.75;33.41
34566;BME280;20803;42.676;26.348;2022-08-27T07:13:27;98163.44;;;31.99;34.61
34566;BME280;20803;42.676;26.348;2022-08-27T07:15:54;98168.22;;;31.81;34.75
34566;BME280;20803;42.676;26.348;2022-08-27T07:18:20;98167.66;;;31.98;34.96
34566;BME280;20803;42.676;26.348;2022-08-27T07:20:47;98168.81;;;31.36;35.11
34566;BME280;20803;42.676;26.348;2022-08-27T07:23:12;98168.22;;;31.23;35.72
34566;BME280;20803;42.676;26.348;2022-08-27T07:25:40;98164.81;;;31.39;35.17
34566;BME280;20803;42.676;26.348;2022-08-27T07:28:06;98172.63;;;31.31;35.12
34566;BME280;20803;42.676;26.348;2022-08-27T07:30:32;98169.38;;;30.91;35.71
34566;BME280;20803;42.676;26.348;2022-08-27T07:32:57;98170.91;;;30.64;35.88
34566;BME280;20803;42.676;26.348;2022-08-27T07:35:23;98182.78;;;31.32;35.08
34566;BME280;20803;42.676;26.348;2022-08-27T07:37:48;98177.06;;;31.32;35.82
34566;BME280;20803;42.676;26.348;2022-08-27T07:40:14;98176.78;;;31.66;35.25
34566;BME280;20803;42.676;26.348;2022-08-27T07:42:41;98170.16;;;32.02;34.59
34566;BME280;20803;42.676;26.348;2022-08-27T07:45:27;98176.72;;;32.17;34.04
34566;BME280;20803;42.676;26.348;2022-08-27T07:47:53;98170.59;;;32.44;33.70
34566;BME280;20803;42.676;26.348;2022-08-27T07:50:19;98177.66;;;32.73;33.43
34566;BME280;20803;42.676;26.348;2022-08-27T07:52:46;98180.50;;;31.90;33.23
34566;BME280;20803;42.676;26.348;2022-08-27T07:55:12;98173.81;;;32.71;32.84
34566;BME280;20803;42.676;26.348;2022-08-27T07:57:38;98188.88;;;33.64;32.57
34566;BME280;20803;42.676;26.348;2022-08-27T08:00:06;98189.34;;;33.53;31.72
34566;BME280;20803;42.676;26.348;2022-08-27T08:02:34;98187.81;;;33.45;33.08
34566;BME280;20803;42.676;26.348;2022-08-27T08:04:59;98186.69;;;33.80;30.89
34566;BME280;20803;42.676;26.348;2022-08-27T08:07:25;98187.66;;;33.83;30.23
34566;BME280;20803;42.676;26.348;2022-08-27T08:09:50;98183.41;;;32.66;31.69
34566;BME280;20803;42.676;26.348;2022-08-27T08:12:16;98185.97;;;33.32;31.65
34566;BME280;20803;42.676;26.348;2022-08-27T08:14:42;98183.91;;;33.10;31.54
34566;BME280;20803;42.676;26.348;2022-08-27T08:17:08;98186.56;;;33.70;29.68
34566;BME280;20803;42.676;26.348;2022-08-27T08:19:33;98181.34;;;34.09;29.37
34566;BME280;20803;42.676;26.348;2022-08-27T08:21:59;98174.78;;;34.08;28.91
34566;BME280;20803;42.676;26.348;2022-08-27T08:24:25;98171.69;;;34.14;28.94
34566;BME280;20803;42.676;26.348;2022-08-27T08:26:50;98185.06;;;34.69;29.23
34566;BME280;20803;42.676;26.348;2022-08-27T08:29:16;98168.75;;;33.57;29.95
34566;BME280;20803;42.676;26.348;2022-08-27T08:31:41;98180.13;;;33.87;29.67
34566;BME280;20803;42.676;26.348;2022-08-27T08:34:08;98173.25;;;34.07;29.76
34566;BME280;20803;42.676;26.348;2022-08-27T08:36:34;98174.97;;;34.10;29.67
34566;BME280;20803;42.676;26.348;2022-08-27T08:38:59;98172.47;;;34.39;29.40
34566;BME280;20803;42.676;26.348;2022-08-27T08:41:43;98173.28;;;34.32;30.16
34566;BME280;20803;42.676;26.348;2022-08-27T08:47:12;98180.03;;;35.11;28.76
34566;BME280;20803;42.676;26.348;2022-08-27T08:50:05;98175.03;;;35.12;29.29
34566;BME280;20803;42.676;26.348;2022-08-27T08:55:17;98168.94;;;34.66;28.90
34566;BME280;20803;42.676;26.348;2022-08-27T09:00:39;98163.09;;;33.74;30.25
34566;BME280;20803;42.676;26.348;2022-08-27T09:03:06;98170.56;;;34.34;28.82
34566;BME280;20803;42.676;26.348;2022-08-27T09:05:34;98169.97;;;34.36;29.06
34566;BME280;20803;42.676;26.348;2022-08-27T09:08:35;98167.78;;;34.19;28.94
34566;BME280;20803;42.676;26.348;2022-08-27T09:11:07;98168.88;;;34.31;28.76
34566;BME280;20803;42.676;26.348;2022-08-27T09:13:40;98159.53;;;34.40;29.97
34566;BME280;20803;42.676;26.348;2022-08-27T09:16:06;98158.63;;;34.80;28.21
34566;BME280;20803;42.676;26.348;2022-08-27T09:18:35;98156.00;;;34.49;29.17
34566;BME280;20803;42.676;26.348;2022-08-27T09:26:29;98154.09;;;34.69;30.22
34566;BME280;20803;42.676;26.348;2022-08-27T09:29:01;98163.13;;;34.73;29.22
34566;BME280;20803;42.676;26.348;2022-08-27T09:31:53;98161.16;;;35.27;28.29
34566;BME280;20803;42.676;26.348;2022-08-27T09:34:20;98157.91;;;35.40;28.10
34566;BME280;20803;42.676;26.348;2022-08-27T09:39:40;98164.97;;;34.78;29.66
34566;BME280;20803;42.676;26.348;2022-08-27T09:42:22;98163.00;;;34.64;28.95
34566;BME280;20803;42.676;26.348;2022-08-27T09:44:52;98168.44;;;34.35;28.82
34566;BME280;20803;42.676;26.348;2022-08-27T09:47:18;98157.41;;;34.16;29.41
34566;BME280;20803;42.676;26.348;2022-08-27T09:49:44;98163.59;;;34.12;28.96
34566;BME280;20803;42.676;26.348;2022-08-27T09:52:26;98156.34;;;34.04;29.25
34566;BME280;20803;42.676;26.348;2022-08-27T09:54:54;98153.41;;;33.87;29.56
34566;BME280;20803;42.676;26.348;2022-08-27T09:57:38;98153.78;;;33.51;29.86
34566;BME280;20803;42.676;26.348;2022-08-27T10:00:14;98162.22;;;33.56;30.53
34566;BME280;20803;42.676;26.348;2022-08-27T10:02:51;98159.47;;;33.66;30.07
34566;BME280;20803;42.676;26.348;2022-08-27T10:05:28;98153.75;;;33.58;30.82
34566;BME280;20803;42.676;26.348;2022-08-27T10:08:09;98156.81;;;33.93;30.37
34566;BME280;20803;42.676;26.348;2022-08-27T10:13:17;98157.59;;;34.18;30.34
34566;BME280;20803;42.676;26.348;2022-08-27T10:19:19;98150.94;;;33.83;31.01
34566;BME280;20803;42.676;26.348;2022-08-27T10:21:55;98149.81;;;33.38;30.74
34566;BME280;20803;42.676;26.348;2022-08-27T10:24:36;98153.59;;;33.89;30.30
34566;BME280;20803;42.676;26.348;2022-08-27T10:27:18;98151.06;;;33.93;30.32
34566;BME280;20803;42.676;26.348;2022-08-27T10:35:21;98150.75;;;34.55;29.28
34566;BME280;20803;42.676;26.348;2022-08-27T10:43:59;98154.34;;;35.32;28.34
34566;BME280;20803;42.676;26.348;2022-08-27T10:51:55;98145.19;;;34.75;28.27
34566;BME280;20803;42.676;26.348;2022-08-27T10:55:02;98141.28;;;34.97;27.83
34566;BME280;20803;42.676;26.348;2022-08-27T11:01:01;98137.72;;;35.23;27.75
34566;BME280;20803;42.676;26.348;2022-08-27T11:03:38;98131.78;;;35.21;27.59
34566;BME280;20803;42.676;26.348;2022-08-27T11:06:29;98154.00;;;34.77;27.51
34566;BME280;20803;42.676;26.348;2022-08-27T11:09:05;98147.53;;;34.51;28.05
34566;BME280;20803;42.676;26.348;2022-08-27T11:11:41;98142.66;;;34.37;28.67
34566;BME280;20803;42.676;26.348;2022-08-27T11:14:26;98143.69;;;34.49;28.24
34566;BME280;20803;42.676;26.348;2022-08-27T11:16:58;98144.69;;;34.27;28.96
34566;BME280;20803;42.676;26.348;2022-08-27T11:24:42;98144.78;;;34.53;28.94
34566;BME280;20803;42.676;26.348;2022-08-27T11:27:13;98135.84;;;34.84;27.98
34566;BME280;20803;42.676;26.348;2022-08-27T11:30:20;98130.69;;;34.99;29.20
34566;BME280;20803;42.676;26.348;2022-08-27T11:43:08;98125.13;;;33.60;31.08
34566;BME280;20803;42.676;26.348;2022-08-27T11:45:49;98115.56;;;33.83;30.77
34566;BME280;20803;42.676;26.348;2022-08-27T11:48:34;98125.00;;;33.83;30.65
34566;BME280;20803;42.676;26.348;2022-08-27T11:51:10;98117.75;;;33.74;31.63
34566;BME280;20803;42.676;26.348;2022-08-27T11:53:52;98122.50;;;33.47;31.25
34566;BME280;20803;42.676;26.348;2022-08-27T11:58:53;98129.66;;;32.83;32.74
34566;BME280;20803;42.676;26.348;2022-08-27T12:01:28;98124.56;;;32.36;33.38
34566;BME280;20803;42.676;26.348;2022-08-27T12:04:05;98123.97;;;32.38;33.00
34566;BME280;20803;42.676;26.348;2022-08-27T12:06:43;98133.94;;;32.21;33.01
34566;BME280;20803;42.676;26.348;2022-08-27T12:09:21;98128.97;;;32.30;33.68
34566;BME280;20803;42.676;26.348;2022-08-27T12:14:43;98138.50;;;32.78;31.98
34566;BME280;20803;42.676;26.348;2022-08-27T12:17:39;98129.09;;;32.85;32.54
34566;BME280;20803;42.676;26.348;2022-08-27T12:20:27;98125.41;;;32.99;31.31
34566;BME280;20803;42.676;26.348;2022-08-27T12:23:32;98134.03;;;32.99;31.42
34566;BME280;20803;42.676;26.348;2022-08-27T12:28:49;98121.78;;;32.91;32.22
34566;BME280;20803;42.676;26.348;2022-08-27T12:31:20;98120.03;;;32.88;31.87
34566;BME280;20803;42.676;26.348;2022-08-27T12:33:50;98126.75;;;32.91;31.90
34566;BME280;20803;42.676;26.348;2022-08-27T12:36:21;98119.13;;;32.78;31.98
34566;BME280;20803;42.676;26.348;2022-08-27T12:38:49;98121.41;;;32.87;31.42
34566;BME280;20803;42.676;26.348;2022-08-27T12:41:29;98120.31;;;32.75;31.64
34566;BME280;20803;42.676;26.348;2022-08-27T12:44:30;98118.69;;;32.89;31.92
34566;BME280;20803;42.676;26.348;2022-08-27T12:47:05;98120.09;;;32.81;32.17
34566;BME280;20803;42.676;26.348;2022-08-27T12:49:40;98121.03;;;32.83;31.25
34566;BME280;20803;42.676;26.348;2022-08-27T12:57:56;98112.38;;;32.91;32.26
34566;BME280;20803;42.676;26.348;2022-08-27T13:00:25;98122.09;;;33.03;32.13
34566;BME280;20803;42.676;26.348;2022-08-27T13:05:22;98112.41;;;32.76;31.47
34566;BME280;20803;42.676;26.348;2022-08-27T13:07:49;98109.91;;;32.87;31.47
34566;BME280;20803;42.676;26.348;2022-08-27T13:10:28;98109.34;;;32.81;31.31
34566;BME280;20803;42.676;26.348;2022-08-27T13:13:15;98101.94;;;33.11;31.31
34566;BME280;20803;42.676;26.348;2022-08-27T13:15:48;98110.34;;;33.24;30.71
34566;BME280;20803;42.676;26.348;2022-08-27T13:18:15;98106.25;;;33.34;30.46
34566;BME280;20803;42.676;26.348;2022-08-27T13:20:41;98103.47;;;33.52;30.35
34566;BME280;20803;42.676;26.348;2022-08-27T13:23:13;98112.63;;;33.25;30.17
34566;BME280;20803;42.676;26.348;2022-08-27T13:25:39;98111.44;;;33.36;30.75
34566;BME280;20803;42.676;26.348;2022-08-27T13:28:10;98104.53;;;33.31;29.99
34566;BME280;20803;42.676;26.348;2022-08-27T13:30:39;98107.09;;;33.20;29.27
34566;BME280;20803;42.676;26.348;2022-08-27T13:33:08;98106.53;;;33.54;29.77
34566;BME280;20803;42.676;26.348;2022-08-27T13:35:35;98101.06;;;33.73;29.69
34566;BME280;20803;42.676;26.348;2022-08-27T13:38:02;98106.09;;;33.57;29.70
34566;BME280;20803;42.676;26.348;2022-08-27T13:42:57;98107.75;;;33.75;28.50
34566;BME280;20803;42.676;26.348;2022-08-27T13:45:26;98110.63;;;34.00;28.08
34566;BME280;20803;42.676;26.348;2022-08-27T13:47:52;98109.53;;;34.20;28.10
34566;BME280;20803;42.676;26.348;2022-08-27T13:50:24;98104.88;;;34.25;29.82
34566;BME280;20803;42.676;26.348;2022-08-27T13:52:52;98113.56;;;34.17;27.43
34566;BME280;20803;42.676;26.348;2022-08-27T13:55:38;98111.59;;;34.03;27.73
34566;BME280;20803;42.676;26.348;2022-08-27T13:58:14;98110.56;;;33.83;28.96
34566;BME280;20803;42.676;26.348;2022-08-27T14:00:42;98110.78;;;33.45;28.74
34566;BME280;20803;42.676;26.348;2022-08-27T14:03:34;98103.28;;;33.10;29.59
34566;BME280;20803;42.676;26.348;2022-08-27T14:06:00;98110.25;;;32.91;29.94
34566;BME280;20803;42.676;26.348;2022-08-27T14:08:31;98111.81;;;32.85;30.14
34566;BME280;20803;42.676;26.348;2022-08-27T14:11:06;98110.13;;;32.74;29.84
34566;BME280;20803;42.676;26.348;2022-08-27T14:13:46;98108.78;;;32.75;29.88
34566;BME280;20803;42.676;26.348;2022-08-27T14:16:26;98109.91;;;32.87;30.11
34566;BME280;20803;42.676;26.348;2022-08-27T14:19:28;98109.53;;;32.76;30.68
34566;BME280;20803;42.676;26.348;2022-08-27T14:21:54;98113.97;;;32.69;30.86
34566;BME280;20803;42.676;26.348;2022-08-27T14:24:22;98120.31;;;32.68;31.17